Time;durP1;ratioP1;P1;durP2;ratioP2;P2;SDS_P1;SDS_P2;PMS_P1;PMS_P2;Temp;Humidity;BMP_temperature;BMP_pressure;BME280_temperature;BME280_humidity;BME280_pressure;Samples;Min_cycle;Max_cycle;Signal;HPM_P1;HPM_P2
2022/09/03 00:02:16;;;;;;;;;;;;;;;16.85;53.41;101098.75;5032022;28;20030;-71
2022/09/03 00:05:10;;;;;;;9.38;2.25;;;;;;;16.97;53.97;101098.00;5031320;28;20411;-71
2022/09/03 00:07:49;;;;;;;6.75;2.10;;;;;;;16.84;53.89;101104.19;5031945;28;20140;-71
2022/09/03 00:10:23;;;;;;;4.88;2.17;;;;;;;16.86;53.67;101100.34;5033174;28;20428;-71
2022/09/03 00:12:51;;;;;;;4.78;2.20;;;;;;;16.88;53.56;101098.31;5033167;28;20033;-71
2022/09/03 00:15:20;;;;;;;3.67;2.15;;;;;;;16.88;53.46;101097.50;5033079;28;20057;-71
2022/09/03 00:17:49;;;;;;;5.35;2.38;;;;;;;16.85;53.57;101103.19;5033184;28;20041;-71
2022/09/03 00:20:31;;;;;;;4.55;2.10;;;;;;;16.82;53.57;101095.78;5031769;28;20111;-71
2022/09/03 00:23:02;;;;;;;3.85;2.25;;;;;;;16.80;53.61;101097.81;5033101;28;20108;-71
2022/09/03 00:25:40;;;;;;;3.03;1.98;;;;;;;16.95;53.54;101095.63;5032947;28;20044;-71
2022/09/03 00:28:12;;;;;;;3.67;2.20;;;;;;;16.86;53.32;101091.72;5033271;28;20194;-69
2022/09/03 00:30:40;;;;;;;8.67;2.60;;;;;;;16.85;53.61;101087.50;5032947;28;20013;-72
2022/09/03 00:33:20;;;;;;;7.50;2.20;;;;;;;16.74;53.99;101085.63;5032958;28;20782;-71
2022/09/03 00:35:56;;;;;;;6.45;1.88;;;;;;;16.76;53.82;101092.25;5031638;28;20393;-71
2022/09/03 00:38:22;;;;;;;4.00;2.15;;;;;;;16.64;54.06;101078.31;5035641;28;20508;-72
2022/09/03 00:41:07;;;;;;;6.32;2.20;;;;;;;16.58;54.23;101087.81;5035702;28;20025;-71
2022/09/03 00:43:33;;;;;;;4.45;2.30;;;;;;;16.51;54.96;101089.69;5036935;28;20021;-72
2022/09/03 00:46:18;;;;;;;5.53;2.08;;;;;;;16.53;54.72;101084.28;5035479;28;20029;-72
2022/09/03 00:49:13;;;;;;;5.45;2.30;;;;;;;16.45;54.70;101086.16;5035500;28;20033;-72
2022/09/03 00:52:05;;;;;;;7.90;2.30;;;;;;;16.60;54.39;101088.41;5036664;28;20025;-71
2022/09/03 00:54:42;;;;;;;5.13;2.08;;;;;;;16.49;54.60;101081.31;5035149;28;20049;-71
2022/09/03 00:57:26;;;;;;;6.88;2.20;;;;;;;16.35;55.12;101082.47;5036530;28;20116;-72
2022/09/03 01:00:11;;;;;;;3.42;2.30;;;;;;;16.39;55.23;101073.97;5037011;28;20069;-72
2022/09/03 01:02:59;;;;;;;8.05;2.33;;;;;;;16.26;55.24;101076.75;5036373;28;20029;-70
2022/09/03 01:05:40;;;;;;;4.15;2.10;;;;;;;16.23;55.21;101074.59;5035121;28;20026;-73
2022/09/03 01:08:31;;;;;;;6.45;2.33;;;;;;;16.62;53.78;101077.75;5035193;28;20028;-73
2022/09/03 01:11:29;;;;;;;5.50;2.15;;;;;;;16.37;54.43;101075.22;5036312;28;20029;-72
2022/09/03 01:14:13;;;;;;;5.97;2.22;;;;;;;16.42;54.84;101076.16;5036280;28;20017;-72
2022/09/03 01:16:45;;;;;;;7.63;1.92;;;;;;;16.41;54.66;101079.78;5034993;28;20064;-71
2022/09/03 01:19:41;;;;;;;6.80;2.20;;;;;;;16.48;54.19;101082.31;5034861;28;20033;-71
2022/09/03 01:22:43;;;;;;;4.55;2.05;;;;;;;16.57;53.87;101081.03;5036154;28;20030;-71
2022/09/03 01:25:50;;;;;;;4.35;2.15;;;;;;;16.64;53.92;101080.94;5035957;28;20025;-72
2022/09/03 01:28:39;;;;;;;4.65;1.98;;;;;;;16.60;54.21;101088.41;5024086;28;20060;-72
2022/09/03 01:31:19;;;;;;;6.53;2.20;;;;;;;16.72;53.63;101087.66;5034686;28;20021;-72
2022/09/03 01:33:55;;;;;;;8.82;2.33;;;;;;;16.72;53.56;101087.66;5036097;28;20420;-71
2022/09/03 01:36:44;;;;;;;5.28;2.30;;;;;;;16.56;54.09;101096.88;5035807;28;20373;-71
2022/09/03 01:39:32;;;;;;;3.30;2.10;;;;;;;16.38;54.53;101087.25;5035737;28;20366;-72
2022/09/03 01:42:22;;;;;;;7.25;2.10;;;;;;;16.45;54.20;101083.53;5036028;28;20485;-71
2022/09/03 01:45:08;;;;;;;3.75;2.20;;;;;;;16.41;54.84;101089.44;5035925;28;20025;-71
2022/09/03 01:47:53;;;;;;;5.53;2.15;;;;;;;16.34;54.86;101092.13;5034995;28;20032;-70
2022/09/03 01:50:35;;;;;;;9.60;2.88;;;;;;;16.29;55.19;101088.56;5035587;28;20079;-71
2022/09/03 01:53:05;;;;;;;9.68;2.22;;;;;;;16.35;54.89;101088.47;5035484;28;20032;-71
2022/09/03 01:55:55;;;;;;;3.05;2.15;;;;;;;16.42;54.34;101088.41;5035179;28;20053;-71
2022/09/03 01:59:01;;;;;;;3.20;2.10;;;;;;;16.54;54.64;101093.69;5035304;28;20342;-72
2022/09/03 02:01:32;;;;;;;7.70;2.22;;;;;;;16.51;54.41;101089.69;5004762;28;20041;-71
2022/09/03 02:03:58;;;;;;;5.47;2.10;;;;;;;16.49;54.54;101088.34;5035305;28;20025;-71
2022/09/03 02:06:30;;;;;;;7.20;2.45;;;;;;;16.40;54.85;101090.41;5035413;28;20533;-71
2022/09/03 02:08:56;;;;;;;9.00;2.38;;;;;;;16.40;55.13;101085.19;5035246;28;20021;-71
2022/09/03 02:11:22;;;;;;;3.35;1.90;;;;;;;16.38;55.10;101080.22;5033835;28;20057;-71
2022/09/03 02:13:51;;;;;;;5.18;2.20;;;;;;;16.30;55.26;101087.53;5033920;28;20115;-71
2022/09/03 02:16:24;;;;;;;6.72;2.30;;;;;;;16.31;55.03;101081.28;5035092;28;20384;-71
2022/09/03 02:18:56;;;;;;;5.30;2.22;;;;;;;16.20;55.68;101078.41;5033738;28;20021;-70
2022/09/03 02:21:24;;;;;;;6.60;2.20;;;;;;;16.20;56.04;101085.44;5033691;28;20025;-70
2022/09/03 02:23:50;;;;;;;8.18;2.22;;;;;;;16.21;54.92;101072.19;5034944;28;20036;-71
2022/09/03 02:26:21;;;;;;;5.57;2.22;;;;;;;16.15;55.57;101080.88;5034897;28;20092;-70
2022/09/03 02:28:48;;;;;;;5.72;2.03;;;;;;;16.13;56.44;101082.09;5033628;28;20031;-71
2022/09/03 02:31:13;;;;;;;4.82;2.17;;;;;;;16.31;54.62;101081.28;5034784;28;20025;-70
2022/09/03 02:33:41;;;;;;;4.03;2.10;;;;;;;16.29;54.84;101078.91;5033473;28;20025;-71
2022/09/03 02:36:11;;;;;;;4.10;2.10;;;;;;;16.39;54.51;101076.59;5034765;28;20449;-71
2022/09/03 02:38:36;;;;;;;4.85;2.30;;;;;;;16.02;55.45;101081.00;5033449;28;20519;-70
2022/09/03 02:41:02;;;;;;;4.35;2.10;;;;;;;16.13;55.75;101079.47;5034455;28;20021;-71
2022/09/03 02:43:41;;;;;;;4.57;2.22;;;;;;;15.90;56.28;101080.09;5034582;28;20021;-71
2022/09/03 02:46:12;;;;;;;4.43;2.00;;;;;;;16.01;55.76;101072.38;5033736;28;20033;-71
2022/09/03 02:48:37;;;;;;;5.20;2.10;;;;;;;16.11;55.64;101076.28;5033227;28;20093;-71
2022/09/03 02:51:03;;;;;;;3.63;2.10;;;;;;;15.97;56.75;101078.25;5034341;28;20056;-71
2022/09/03 02:53:28;;;;;;;4.80;2.10;;;;;;;15.99;56.78;101073.59;5033053;28;20075;-71
2022/09/03 02:56:00;;;;;;;3.65;2.10;;;;;;;15.87;56.94;101075.31;5033018;28;20129;-72
2022/09/03 02:58:27;;;;;;;3.53;2.30;;;;;;;15.98;56.06;101067.59;5033911;28;20543;-71
2022/09/03 03:00:52;;;;;;;4.03;2.25;;;;;;;16.10;55.46;101072.88;5032374;28;20397;-71
2022/09/03 03:03:18;;;;;;;5.20;2.53;;;;;;;15.99;56.13;101063.97;5032977;28;20032;-71
2022/09/03 03:05:48;;;;;;;4.32;2.28;;;;;;;15.95;55.98;101056.81;5034163;28;20109;-71
2022/09/03 03:08:15;;;;;;;6.30;1.90;;;;;;;15.81;56.67;101066.56;5032799;28;20035;-70
2022/09/03 03:10:44;;;;;;;6.20;2.10;;;;;;;15.93;56.64;101061.44;5032756;28;20357;-70
2022/09/03 03:13:10;;;;;;;3.72;2.20;;;;;;;15.84;56.09;101049.69;5034043;28;20021;-71
2022/09/03 03:15:36;;;;;;;4.63;2.17;;;;;;;16.04;55.51;101063.31;5033966;28;20037;-71
2022/09/03 03:18:01;;;;;;;3.63;2.20;;;;;;;15.84;56.16;101060.91;5032588;28;20033;-72
2022/09/03 03:20:27;;;;;;;6.60;2.22;;;;;;;15.94;56.03;101070.84;5033918;28;20400;-71
2022/09/03 03:22:52;;;;;;;7.18;2.25;;;;;;;15.78;56.65;101062.56;5032606;28;20025;-71
2022/09/03 03:25:17;;;;;;;5.10;2.13;;;;;;;15.75;57.08;101057.78;5033832;28;20057;-71
2022/09/03 03:27:43;;;;;;;6.13;2.20;;;;;;;15.66;56.87;101053.03;5032417;28;20022;-71
2022/09/03 03:30:10;;;;;;;4.05;2.30;;;;;;;15.72;56.99;101062.63;5033785;28;20025;-71
2022/09/03 03:32:36;;;;;;;6.72;2.30;;;;;;;15.93;56.38;101057.00;5032389;28;20029;-71
2022/09/03 03:35:02;;;;;;;4.47;2.10;;;;;;;16.03;56.37;101066.97;5033915;28;20044;-71
2022/09/03 03:37:27;;;;;;;3.90;2.05;;;;;;;15.96;56.93;101055.78;5032148;28;20025;-72
2022/09/03 03:39:52;;;;;;;3.65;2.20;;;;;;;15.90;56.19;101062.66;5033539;28;20489;-71
2022/09/03 03:42:18;;;;;;;5.20;1.98;;;;;;;16.07;55.78;101062.09;5033522;28;20032;-71
2022/09/03 03:44:43;;;;;;;3.15;2.13;;;;;;;16.12;55.75;101063.06;5033512;28;20048;-73
2022/09/03 03:47:09;;;;;;;3.63;2.00;;;;;;;15.99;55.73;101058.75;5033634;28;20029;-71
2022/09/03 03:49:34;;;;;;;9.13;2.30;;;;;;;16.13;55.47;101062.03;5032180;28;20052;-71
2022/09/03 03:52:01;;;;;;;4.97;2.30;;;;;;;16.01;55.56;101061.94;5033367;28;20498;-71
2022/09/03 03:54:27;;;;;;;5.50;1.92;;;;;;;16.02;55.46;101060.94;5033173;28;20152;-71
2022/09/03 03:56:52;;;;;;;3.35;2.15;;;;;;;16.07;55.15;101072.53;5033255;28;20128;-70
2022/09/03 03:59:17;;;;;;;6.80;2.20;;;;;;;16.20;54.91;101075.00;5033389;28;20122;-71
2022/09/03 04:01:43;;;;;;;5.00;2.00;;;;;;;16.17;54.66;101070.22;5031933;28;20025;-71
2022/09/03 04:04:08;;;;;;;3.60;2.00;;;;;;;16.10;55.05;101069.50;5033278;28;20537;-72
2022/09/03 04:06:33;;;;;;;4.20;1.95;;;;;;;16.02;55.02;101071.38;5033283;28;20510;-71
2022/09/03 04:08:58;;;;;;;5.65;2.00;;;;;;;15.97;55.20;101062.63;5033478;28;20049;-72
2022/09/03 04:11:24;;;;;;;4.10;2.20;;;;;;;16.11;54.99;101071.91;5031753;28;20029;-71
2022/09/03 04:13:51;;;;;;;2.42;1.88;;;;;;;16.24;54.96;101068.34;5033109;28;20037;-72
2022/09/03 04:16:25;;;;;;;4.68;2.30;;;;;;;16.21;54.71;101066.97;5031775;28;20028;-73
2022/09/03 04:18:51;;;;;;;5.72;2.10;;;;;;;16.10;55.07;101065.06;5031720;28;20022;-72
2022/09/03 04:21:19;;;;;;;3.25;2.10;;;;;;;16.23;54.78;101064.16;5031624;28;20128;-72
2022/09/03 04:23:46;;;;;;;6.45;2.28;;;;;;;16.10;55.54;101059.84;5031769;28;20116;-72
2022/09/03 04:26:14;;;;;;;2.97;2.00;;;;;;;16.01;55.43;101061.94;5031807;28;20030;-72
2022/09/03 04:28:40;;;;;;;3.55;2.00;;;;;;;16.07;55.33;101057.69;5031727;28;20427;-72
2022/09/03 04:31:08;;;;;;;7.00;2.20;;;;;;;15.90;56.46;101054.84;5031771;28;20018;-72
2022/09/03 04:33:35;;;;;;;5.13;2.05;;;;;;;15.82;57.03;101055.09;5031708;28;20029;-73
2022/09/03 04:36:18;;;;;;;3.72;2.05;;;;;;;15.69;56.30;101048.22;5031679;28;20022;-72
2022/09/03 04:38:45;;;;;;;4.40;2.53;;;;;;;15.86;56.38;101060.72;5032920;28;20064;-72
2022/09/03 04:41:14;;;;;;;5.30;2.30;;;;;;;15.54;57.92;101055.53;5032858;28;20628;-71
2022/09/03 04:43:42;;;;;;;3.30;1.90;;;;;;;15.54;57.75;101045.91;5032816;28;20476;-71
2022/09/03 04:46:08;;;;;;;6.40;2.47;;;;;;;15.67;56.98;101057.22;5031597;28;20118;-71
2022/09/03 04:48:35;;;;;;;4.72;2.40;;;;;;;15.65;57.04;101059.25;5033056;28;20087;-70
2022/09/03 04:51:05;;;;;;;5.88;2.40;;;;;;;15.54;57.99;101061.53;5031566;28;20018;-71
2022/09/03 04:53:35;;;;;;;4.32;2.10;;;;;;;15.52;57.56;101049.75;5031402;28;20034;-71
2022/09/03 04:56:01;;;;;;;9.45;2.20;;;;;;;15.54;57.44;101051.13;5032908;28;20412;-71
2022/09/03 04:58:27;;;;;;;3.00;2.05;;;;;;;15.60;57.26;101065.09;5033233;28;20030;-71
2022/09/03 05:00:52;;;;;;;5.55;2.15;;;;;;;15.53;58.09;101053.94;5032575;28;20032;-71
2022/09/03 05:03:18;;;;;;;7.60;2.00;;;;;;;15.44;58.10;101050.78;5031445;28;20037;-71
2022/09/03 05:05:51;;;;;;;7.15;2.20;;;;;;;15.33;57.43;101064.50;5032664;28;20033;-71
2022/09/03 05:08:17;;;;;;;5.05;2.10;;;;;;;15.22;57.98;101057.34;5032901;28;20461;-71
2022/09/03 05:10:42;;;;;;;3.83;1.90;;;;;;;15.48;57.31;101057.19;5032641;28;20104;-72
2022/09/03 05:13:07;;;;;;;8.05;2.30;;;;;;;15.46;57.39;101058.41;5032592;28;20033;-73
2022/09/03 05:15:33;;;;;;;5.63;2.00;;;;;;;15.53;57.21;101054.72;5032683;28;20358;-72
2022/09/03 05:18:00;;;;;;;4.18;2.00;;;;;;;15.55;57.16;101051.91;5031229;28;20025;-72
2022/09/03 05:20:28;;;;;;;3.63;2.38;;;;;;;15.46;57.96;101045.38;5031247;28;20037;-72
2022/09/03 05:22:54;;;;;;;5.45;2.28;;;;;;;15.52;57.70;101058.34;5032785;28;20030;-72
2022/09/03 05:25:19;;;;;;;3.45;1.80;;;;;;;15.47;57.91;101060.78;5036047;28;20028;-72
2022/09/03 05:27:45;;;;;;;6.35;2.05;;;;;;;15.41;58.19;101056.44;5036113;28;20053;-71
2022/09/03 05:30:11;;;;;;;5.00;2.10;;;;;;;15.52;57.99;101065.38;5034734;28;20070;-72
2022/09/03 05:32:36;;;;;;;5.85;2.05;;;;;;;15.46;58.75;101061.00;5035911;28;20112;-71
2022/09/03 05:35:02;;;;;;;3.45;2.22;;;;;;;15.49;57.65;101052.78;5035962;28;20095;-72
2022/09/03 05:37:27;;;;;;;13.35;2.22;;;;;;;15.46;58.17;101051.38;5035793;28;20040;-72
2022/09/03 05:39:53;;;;;;;5.85;2.20;;;;;;;15.54;57.70;101052.94;5035738;28;20028;-72
2022/09/03 05:42:18;;;;;;;7.15;2.17;;;;;;;15.50;58.31;101055.16;5035727;28;20036;-71
2022/09/03 05:44:44;;;;;;;7.15;2.20;;;;;;;15.52;58.62;101054.94;5035604;28;20105;-72
2022/09/03 05:47:09;;;;;;;3.40;2.10;;;;;;;15.66;58.22;101056.44;5035947;28;20034;-72
2022/09/03 05:49:34;;;;;;;3.55;2.10;;;;;;;15.57;58.05;101048.09;5035576;28;20504;-72
2022/09/03 05:52:00;;;;;;;3.42;2.13;;;;;;;15.59;58.82;101047.88;5034486;28;20026;-71
2022/09/03 05:54:25;;;;;;;5.65;2.08;;;;;;;15.67;58.94;101044.19;5035399;28;20455;-71
2022/09/03 05:56:50;;;;;;;4.75;2.08;;;;;;;15.92;57.69;101055.44;5035687;28;20029;-71
2022/09/03 05:59:16;;;;;;;7.10;1.95;;;;;;;16.00;57.09;101054.34;5035397;28;20485;-71
2022/09/03 06:01:44;;;;;;;9.32;2.58;;;;;;;16.11;58.51;101061.47;5035359;28;20017;-72
2022/09/03 06:04:14;;;;;;;6.93;2.33;;;;;;;16.04;58.49;101068.53;5034185;28;20036;-72
2022/09/03 06:06:44;;;;;;;3.65;2.05;;;;;;;16.11;57.61;101055.44;5034009;28;20416;-72
2022/09/03 06:09:12;;;;;;;4.57;2.05;;;;;;;16.23;56.61;101064.16;5034009;28;20021;-72
2022/09/03 06:11:38;;;;;;;5.85;2.17;;;;;;;16.60;55.68;101057.09;5033905;28;20067;-71
2022/09/03 06:14:07;;;;;;;4.10;2.10;;;;;;;16.55;55.63;101064.78;5035164;28;20369;-71
2022/09/03 06:16:35;;;;;;;5.38;2.38;;;;;;;16.52;55.87;101054.78;5033891;28;20029;-72
2022/09/03 06:19:00;;;;;;;8.07;2.30;;;;;;;16.60;55.49;101062.31;5035042;28;20018;-72
2022/09/03 06:21:26;;;;;;;5.43;2.38;;;;;;;16.57;55.58;101059.31;5033744;28;20396;-72
2022/09/03 06:23:57;;;;;;;3.17;2.08;;;;;;;16.41;56.05;101066.75;5033647;28;20024;-72
2022/09/03 06:26:23;;;;;;;4.30;2.20;;;;;;;16.49;55.63;101062.25;5035053;28;20026;-71
2022/09/03 06:28:49;;;;;;;4.20;2.08;;;;;;;16.43;55.12;101053.50;5033518;28;20366;-72
2022/09/03 06:31:17;;;;;;;2.67;1.98;;;;;;;16.32;56.15;101062.03;5034602;28;20025;-71
2022/09/03 06:33:43;;;;;;;4.18;2.30;;;;;;;16.51;55.88;101063.59;5033460;28;20028;-71
2022/09/03 06:36:14;;;;;;;5.13;2.10;;;;;;;16.81;54.87;101062.88;5034786;28;20033;-71
2022/09/03 06:38:41;;;;;;;5.60;2.10;;;;;;;16.82;54.79;101059.25;5034797;28;20044;-70
2022/09/03 06:41:10;;;;;;;3.95;1.90;;;;;;;17.05;55.00;101061.94;5033328;28;20036;-72
2022/09/03 06:43:37;;;;;;;11.77;1.90;;;;;;;17.47;53.84;101069.75;5034416;28;20492;-72
2022/09/03 06:46:04;;;;;;;6.25;2.20;;;;;;;21.47;44.63;101072.34;5034522;28;20075;-71
2022/09/03 06:48:31;;;;;;;5.93;2.20;;;;;;;22.99;40.29;101062.72;5033333;28;20025;-72
2022/09/03 06:51:00;;;;;;;7.22;2.03;;;;;;;23.16;39.22;101057.16;5034398;28;20063;-71
2022/09/03 06:53:26;;;;;;;3.75;1.70;;;;;;;22.68;40.83;101060.00;5034383;28;20030;-70
2022/09/03 06:55:53;;;;;;;4.65;2.03;;;;;;;21.47;42.80;101069.72;5032946;28;20140;-71
2022/09/03 06:58:19;;;;;;;6.72;2.00;;;;;;;21.93;41.88;101064.72;5034323;28;20060;-71
2022/09/03 07:00:44;;;;;;;8.13;2.05;;;;;;;22.52;40.96;101061.03;5034139;28;20452;-72
2022/09/03 07:03:09;;;;;;;5.07;2.00;;;;;;;23.26;39.37;101062.44;5034217;28;20044;-72
2022/09/03 07:05:34;;;;;;;9.85;1.80;;;;;;;24.09;36.99;101066.50;5032905;28;20120;-70
2022/09/03 07:08:00;;;;;;;3.58;1.98;;;;;;;24.46;37.46;101062.69;5034041;28;20025;-71
2022/09/03 07:10:26;;;;;;;9.32;1.90;;;;;;;25.42;35.12;101065.66;5034132;28;20018;-71
2022/09/03 07:12:54;;;;;;;5.25;2.20;;;;;;;26.53;33.75;101062.03;5032690;28;20532;-71
2022/09/03 07:15:20;;;;;;;7.32;1.85;;;;;;;27.05;32.84;101062.03;5032622;28;20025;-71
2022/09/03 07:17:45;;;;;;;4.55;1.80;;;;;;;26.91;32.31;101067.28;5034007;28;20033;-71
2022/09/03 07:20:10;;;;;;;4.55;1.83;;;;;;;27.99;31.22;101066.94;5033663;28;20029;-71
2022/09/03 07:22:35;;;;;;;5.43;1.80;;;;;;;28.33;30.68;101063.81;5033816;28;20033;-70
2022/09/03 07:25:01;;;;;;;4.25;1.90;;;;;;;27.48;30.78;101067.94;5033804;28;20060;-72
2022/09/03 07:27:26;;;;;;;6.57;1.80;;;;;;;26.42;32.83;101068.50;5032559;28;20029;-71
2022/09/03 07:29:51;;;;;;;3.10;1.65;;;;;;;26.22;33.89;101059.75;5032504;28;20017;-71
2022/09/03 07:32:17;;;;;;;3.87;1.40;;;;;;;26.03;33.14;101065.00;5032380;28;20499;-71
2022/09/03 07:34:42;;;;;;;3.28;1.60;;;;;;;26.62;32.71;101070.91;5033736;28;20275;-71
2022/09/03 07:37:08;;;;;;;9.38;2.10;;;;;;;25.72;33.68;101064.56;5032326;28;20044;-71
2022/09/03 07:39:33;;;;;;;12.02;2.00;;;;;;;24.47;35.63;101064.25;5032246;28;20061;-72
2022/09/03 07:41:59;;;;;;;3.45;1.60;;;;;;;26.54;32.81;101056.41;5033467;28;20029;-72
2022/09/03 07:44:27;;;;;;;4.50;1.77;;;;;;;26.74;31.72;101054.53;5033466;28;20093;-73
2022/09/03 07:46:52;;;;;;;6.72;1.60;;;;;;;28.10;30.87;101068.31;5033060;28;20491;-72
2022/09/03 07:49:20;;;;;;;6.60;1.65;;;;;;;27.52;30.76;101066.25;5033471;28;20025;-72
2022/09/03 07:51:49;;;;;;;4.75;1.73;;;;;;;28.63;29.91;101066.94;5032258;28;20338;-72
2022/09/03 07:54:14;;;;;;;4.90;2.10;;;;;;;27.51;30.50;101075.28;5033162;28;20107;-72
2022/09/03 07:56:40;;;;;;;4.60;1.67;;;;;;;28.37;30.09;101058.72;5033246;28;20033;-72
2022/09/03 07:59:06;;;;;;;5.65;1.90;;;;;;;27.87;29.76;101066.66;5032113;28;20050;-72
2022/09/03 08:01:32;;;;;;;5.38;1.90;;;;;;;28.46;29.32;101059.59;5031911;28;20025;-72
2022/09/03 08:03:59;;;;;;;5.15;1.67;;;;;;;28.85;29.04;101068.00;5031935;28;20026;-72
2022/09/03 08:06:26;;;;;;;5.13;1.85;;;;;;;27.72;30.20;101067.72;5032032;28;20044;-72
2022/09/03 08:08:57;;;;;;;8.57;1.92;;;;;;;28.74;28.89;101067.44;5031912;28;20027;-72
2022/09/03 08:11:23;;;;;;;3.20;1.55;;;;;;;27.48;30.55;101070.59;5033048;28;20457;-72
2022/09/03 08:14:01;;;;;;;5.63;2.40;;;;;;;26.74;31.28;101079.19;5031876;28;20036;-71
2022/09/03 08:16:32;;;;;;;6.30;1.70;;;;;;;28.40;29.19;101075.91;5033224;28;20030;-72
2022/09/03 08:18:58;;;;;;;4.45;1.70;;;;;;;29.01;28.43;101079.84;5033438;28;20036;-72
2022/09/03 08:21:25;;;;;;;8.27;2.15;;;;;;;27.95;30.12;101084.56;5032923;28;20105;-72
2022/09/03 08:23:53;;;;;;;6.78;1.70;;;;;;;27.12;31.29;101079.13;5031719;28;20133;-72
2022/09/03 08:26:20;;;;;;;4.57;1.70;;;;;;;28.03;29.97;101085.75;5031630;28;20431;-70
2022/09/03 08:28:45;;;;;;;8.10;1.85;;;;;;;26.84;31.67;101082.75;5032899;28;20095;-70
2022/09/03 08:31:12;;;;;;;7.00;2.42;;;;;;;28.78;29.20;101089.72;5031590;28;20021;-70
2022/09/03 08:33:41;;;;;;;4.82;1.80;;;;;;;28.58;29.30;101088.31;5031348;28;20025;-70
2022/09/03 08:36:08;;;;;;;4.22;1.83;;;;;;;29.46;27.95;101087.75;5032889;28;20021;-70
2022/09/03 08:38:35;;;;;;;8.90;1.80;;;;;;;29.40;28.03;101084.44;5032907;28;20152;-70
2022/09/03 08:41:10;;;;;;;5.63;1.90;;;;;;;27.28;30.80;101079.69;5032888;28;20025;-71
2022/09/03 08:43:54;;;;;;;7.30;1.90;;;;;;;29.93;28.25;101085.44;5032852;28;20061;-70
2022/09/03 08:46:25;;;;;;;8.00;1.70;;;;;;;30.24;27.89;101084.56;5031704;28;20021;-70
2022/09/03 08:48:52;;;;;;;4.47;1.70;;;;;;;27.96;30.22;101088.78;5030631;28;20476;-70
2022/09/03 08:51:22;;;;;;;8.30;1.85;;;;;;;27.14;31.71;101084.94;5032723;28;20553;-70
2022/09/03 08:53:56;;;;;;;4.78;1.80;;;;;;;27.92;30.69;101074.53;5031087;28;20029;-72
2022/09/03 08:56:27;;;;;;;5.80;1.63;;;;;;;27.62;31.16;101087.31;5032778;28;20053;-70
2022/09/03 08:58:53;;;;;;;5.80;1.90;;;;;;;27.66;31.18;101077.66;5034589;28;20503;-71
2022/09/03 09:01:57;;;;;;;7.90;1.98;;;;;;;26.64;31.99;101078.53;5036436;28;20029;-72
2022/09/03 09:04:48;;;;;;;4.32;1.70;;;;;;;26.44;32.99;101071.63;5003191;28;20500;-71
2022/09/03 09:07:17;;;;;;;6.25;1.75;;;;;;;26.45;32.80;101078.53;5035132;28;20464;-71
2022/09/03 09:09:54;;;;;;;7.00;1.88;;;;;;;26.10;33.63;101078.72;5035201;28;20021;-70
2022/09/03 09:12:58;;;;;;;7.70;1.73;;;;;;;26.14;33.23;101088.72;5037064;28;20498;-71
2022/09/03 09:15:50;;;;;;;7.55;2.00;;;;;;;25.65;33.63;101077.34;5036404;28;20040;-70
2022/09/03 09:18:26;;;;;;;6.38;1.70;;;;;;;26.38;32.94;101080.72;5028084;28;20049;-70
2022/09/03 09:21:01;;;;;;;7.47;1.80;;;;;;;25.84;33.58;101072.16;5036242;28;20018;-72
2022/09/03 09:23:48;;;;;;;6.38;1.80;;;;;;;26.26;33.27;101074.00;5034906;28;20358;-71
2022/09/03 09:26:16;;;;;;;3.13;1.63;;;;;;;26.20;33.25;101072.50;5036120;28;20400;-70
2022/09/03 09:28:45;;;;;;;3.85;1.67;;;;;;;25.12;35.01;101086.00;5036259;28;20384;-72
2022/09/03 09:31:17;;;;;;;4.55;1.80;;;;;;;25.73;34.03;101082.03;5036151;28;20473;-71
2022/09/03 09:33:43;;;;;;;7.35;2.05;;;;;;;26.48;33.64;101080.59;5036049;28;20113;-72
2022/09/03 09:36:15;;;;;;;6.03;1.60;;;;;;;27.17;32.01;101076.41;5036240;28;20037;-70
2022/09/03 09:38:41;;;;;;;11.90;1.90;;;;;;;26.50;32.52;101073.97;5036180;28;20492;-70
2022/09/03 09:41:09;;;;;;;4.15;1.80;;;;;;;27.01;32.32;101078.50;5036214;28;20291;-70
2022/09/03 09:43:35;;;;;;;6.88;1.80;;;;;;;26.84;32.73;101075.59;5036004;28;20032;-71
2022/09/03 09:46:08;;;;;;;7.65;1.73;;;;;;;27.57;31.91;101078.66;5036264;28;20104;-70
2022/09/03 09:48:38;;;;;;;3.80;1.50;;;;;;;26.85;32.37;101071.09;5034905;28;20051;-70
2022/09/03 09:51:18;;;;;;;5.10;1.50;;;;;;;28.66;30.95;101070.84;5036244;28;20025;-71
2022/09/03 09:53:43;;;;;;;5.63;1.40;;;;;;;27.86;30.55;101067.75;5036172;28;20527;-72
2022/09/03 09:56:23;;;;;;;5.15;1.70;;;;;;;27.94;30.56;101069.72;5040501;28;20050;-73
2022/09/03 09:58:51;;;;;;;9.32;1.60;;;;;;;26.47;32.57;101073.72;5040937;28;20029;-73
2022/09/03 10:01:25;;;;;;;6.35;1.80;;;;;;;27.27;31.47;101067.47;5041254;28;20591;-70
2022/09/03 10:03:54;;;;;;;8.80;2.50;;;;;;;26.96;31.67;101070.63;5040671;28;20111;-72
2022/09/03 10:09:19;;;;;;;4.15;1.80;;;;;;;28.14;31.11;101068.53;5042956;28;20040;-72
2022/09/03 10:12:06;;;;;;;3.20;1.48;;;;;;;28.19;29.88;101065.72;5043199;28;20021;-75
2022/09/03 10:14:41;;;;;;;4.93;1.90;;;;;;;28.30;29.85;101061.78;5043628;28;20029;-72
2022/09/03 10:17:23;;;;;;;6.88;1.73;;;;;;;27.06;31.09;101064.38;5039423;28;20023;-71
2022/09/03 10:20:26;;;;;;;7.75;2.00;;;;;;;27.20;30.90;101062.56;5037690;28;20241;-71
2022/09/03 10:22:55;;;;;;;8.32;1.80;;;;;;;26.68;31.50;101063.66;5036659;28;20469;-70
2022/09/03 10:25:25;;;;;;;5.20;1.55;;;;;;;26.98;30.72;101049.91;5036405;28;20026;-71
2022/09/03 10:27:53;;;;;;;3.83;1.90;;;;;;;27.69;30.77;101063.00;5036379;28;20032;-70
2022/09/03 10:30:19;;;;;;;4.18;1.70;;;;;;;27.45;30.87;101056.03;5034804;28;20087;-74
2022/09/03 10:32:50;;;;;;;7.60;1.73;;;;;;;27.77;30.05;101056.22;5036009;28;20029;-70
2022/09/03 10:35:28;;;;;;;2.90;1.48;;;;;;;28.04;30.30;101055.44;5035916;28;20091;-72
2022/09/03 10:38:19;;;;;;;5.55;1.40;;;;;;;28.06;30.98;101050.63;5034763;28;20061;-71
2022/09/03 10:41:28;;;;;;;6.35;1.90;;;;;;;28.11;29.94;101050.53;5034957;28;20078;-71
2022/09/03 10:44:12;;;;;;;3.25;1.45;;;;;;;27.60;30.83;101048.84;5035283;28;20040;-71
2022/09/03 10:47:18;;;;;;;3.92;1.60;;;;;;;27.35;30.93;101047.47;5035391;28;20044;-72
2022/09/03 10:50:01;;;;;;;4.22;1.60;;;;;;;27.94;30.63;101040.50;5013604;28;20647;-72
2022/09/03 10:52:57;;;;;;;4.25;1.40;;;;;;;29.01;28.68;101037.28;5033669;28;20017;-72
2022/09/03 10:55:35;;;;;;;5.03;1.70;;;;;;;28.35;28.63;101037.75;5034715;28;20045;-72
2022/09/03 10:58:03;;;;;;;6.32;1.55;;;;;;;28.42;29.43;101033.91;5034946;28;20053;-71
2022/09/03 11:00:33;;;;;;;6.55;1.50;;;;;;;29.41;28.29;101032.03;5033484;28;20068;-72
2022/09/03 11:03:30;;;;;;;16.45;1.73;;;;;;;28.69;28.58;101027.72;5033429;28;20025;-72
2022/09/03 11:06:03;;;;;;;5.55;1.50;;;;;;;28.35;29.11;101031.66;5034350;28;20025;-73
2022/09/03 11:08:42;;;;;;;2.95;1.67;;;;;;;27.29;30.59;101049.41;5033047;28;20057;-71
2022/09/03 11:11:28;;;;;;;4.10;1.60;;;;;;;27.70;30.29;101030.06;5033175;28;20024;-72
2022/09/03 11:14:06;;;;;;;3.08;1.35;;;;;;;28.34;29.21;101038.84;5033307;28;20087;-72
2022/09/03 11:16:37;;;;;;;2.45;1.40;;;;;;;28.19;29.83;101039.16;5035088;28;20096;-72
2022/09/03 11:19:14;;;;;;;9.75;1.67;;;;;;;28.76;29.11;101036.81;5033788;28;20025;-71
2022/09/03 11:21:41;;;;;;;8.77;1.50;;;;;;;29.59;27.88;101030.97;5032229;28;20022;-72
2022/09/03 11:24:07;;;;;;;5.53;1.60;;;;;;;28.90;28.79;101044.72;5035108;28;20457;-72
2022/09/03 11:26:34;;;;;;;3.92;1.60;;;;;;;28.34;29.45;101027.44;5034561;28;20025;-72
2022/09/03 11:29:19;;;;;;;7.70;1.80;;;;;;;27.58;30.14;101011.19;5035162;28;20032;-73
2022/09/03 11:31:55;;;;;;;9.00;1.70;;;;;;;27.60;30.24;101036.38;5034460;28;20026;-72
2022/09/03 11:34:24;;;;;;;6.05;1.40;;;;;;;28.38;29.77;101031.06;5035006;28;20083;-71
2022/09/03 11:36:50;;;;;;;3.78;1.45;;;;;;;28.81;28.77;101024.50;5032970;28;20029;-72
2022/09/03 11:39:37;;;;;;;6.13;1.52;;;;;;;29.37;28.58;101023.06;5033293;28;20477;-71
2022/09/03 11:42:09;;;;;;;6.40;1.40;;;;;;;28.53;29.08;101025.41;5034122;28;20026;-73
2022/09/03 11:44:42;;;;;;;4.28;1.40;;;;;;;28.37;29.50;101012.72;5033978;28;20160;-71
2022/09/03 11:47:16;;;;;;;6.95;1.75;;;;;;;27.86;30.04;101009.34;5033920;28;20133;-72
2022/09/03 11:49:49;;;;;;;3.63;1.50;;;;;;;27.71;29.96;101015.72;5032755;28;20021;-72